Time;durP1;ratioP1;P1;durP2;ratioP2;P2;SDS_P1;SDS_P2;PMS_P1;PMS_P2;Temp;Humidity;BMP_temperature;BMP_pressure;BME280_temperature;BME280_humidity;BME280_pressure;Samples;Min_cycle;Max_cycle;Signal;HPM_P1;HPM_P2
2022/10/19 00:01:55;;;;;;;43.40;21.12;;;;;;;3.78;100.00;101150.81;1787395;79;21062;-70
2022/10/19 00:04:22;;;;;;;43.58;20.55;;;;;;;3.77;100.00;101152.09;1785895;79;21050;-69
2022/10/19 00:06:49;;;;;;;42.03;21.33;;;;;;;3.75;100.00;101149.98;1787674;79;21026;-70
2022/10/19 00:09:18;;;;;;;40.90;20.00;;;;;;;3.75;100.00;101143.62;1785653;80;21073;-70
2022/10/19 00:11:49;;;;;;;39.35;20.10;;;;;;;3.71;100.00;101138.13;1756545;80;21073;-71
2022/10/19 00:14:20;;;;;;;43.60;21.45;;;;;;;3.64;100.00;101133.50;1779795;80;21027;-71
2022/10/19 00:16:50;;;;;;;38.13;20.20;;;;;;;3.65;100.00;101125.02;1783253;79;21051;-70
2022/10/19 00:19:22;;;;;;;43.40;21.42;;;;;;;3.67;100.00;101118.63;1783250;79;22903;-70
2022/10/19 00:21:49;;;;;;;38.38;19.55;;;;;;;3.49;100.00;101119.16;1780199;80;21070;-70
2022/10/19 00:24:20;;;;;;;40.05;20.45;;;;;;;3.48;100.00;101111.53;1779238;79;21074;-71
2022/10/19 00:26:47;;;;;;;47.30;20.80;;;;;;;3.50;100.00;101109.39;1779979;80;21055;-71
2022/10/19 00:29:14;;;;;;;41.25;20.32;;;;;;;3.49;100.00;101100.48;1754812;80;21050;-70
2022/10/19 00:31:44;;;;;;;38.50;19.48;;;;;;;3.51;100.00;101099.64;1783203;80;21466;-71
2022/10/19 00:34:11;;;;;;;38.88;19.20;;;;;;;3.46;100.00;101089.89;1784519;79;20995;-70
2022/10/19 00:36:40;;;;;;;41.53;19.25;;;;;;;3.45;100.00;101088.22;1787475;80;21525;-71
2022/10/19 00:39:14;;;;;;;37.58;18.73;;;;;;;3.50;100.00;101075.45;1782735;80;21498;-70
2022/10/19 00:41:45;;;;;;;43.83;19.73;;;;;;;3.49;100.00;101077.56;1781799;79;21059;-71
2022/10/19 00:44:17;;;;;;;40.28;18.95;;;;;;;3.48;100.00;101079.28;1782458;80;21026;-71
2022/10/19 00:46:51;;;;;;;38.20;19.02;;;;;;;3.39;100.00;101075.53;1783289;79;21030;-70
2022/10/19 00:49:32;;;;;;;42.13;19.00;;;;;;;3.28;100.00;101073.45;1782569;80;21038;-71
2022/10/19 00:52:06;;;;;;;41.85;18.65;;;;;;;3.25;100.00;101069.23;1784134;80;21073;-71
2022/10/19 00:54:37;;;;;;;40.45;19.80;;;;;;;3.18;100.00;101054.43;1780044;80;21580;-71
2022/10/19 00:57:05;;;;;;;43.25;20.57;;;;;;;3.16;100.00;101052.33;1779102;80;21003;-70
2022/10/19 00:59:34;;;;;;;38.75;19.77;;;;;;;3.15;100.00;101049.78;1785482;79;21581;-72
2022/10/19 01:02:06;;;;;;;39.65;19.17;;;;;;;3.18;100.00;101049.34;1753051;80;21105;-70
2022/10/19 01:04:38;;;;;;;43.23;19.82;;;;;;;3.09;100.00;101045.56;1779901;80;21062;-70
2022/10/19 01:07:07;;;;;;;36.30;17.55;;;;;;;2.97;100.00;101044.34;1784842;80;21081;-71
2022/10/19 01:09:35;;;;;;;33.15;15.78;;;;;;;2.88;100.00;101041.42;1781020;79;21015;-70
2022/10/19 01:12:12;;;;;;;25.10;13.18;;;;;;;2.93;100.00;101045.20;1774134;80;21522;-70
2022/10/19 01:15:17;;;;;;;23.45;12.35;;;;;;;3.09;100.00;101034.55;1785902;80;21062;-71
2022/10/19 01:18:11;;;;;;;20.57;11.87;;;;;;;3.22;100.00;101025.98;1782642;80;21031;-72
2022/10/19 01:21:04;;;;;;;29.40;14.50;;;;;;;3.34;100.00;101022.53;1782055;80;21319;-71
2022/10/19 01:24:00;;;;;;;30.32;15.93;;;;;;;3.17;100.00;101014.56;1784510;79;21053;-71
2022/10/19 01:26:41;;;;;;;41.90;19.82;;;;;;;3.16;100.00;101012.02;1780332;80;21003;-71
2022/10/19 01:29:41;;;;;;;40.08;19.15;;;;;;;3.07;100.00;101012.92;1785085;80;21026;-71
2022/10/19 01:32:31;;;;;;;42.95;19.92;;;;;;;3.07;100.00;101017.17;1780466;79;21104;-70
2022/10/19 01:35:23;;;;;;;42.35;18.20;;;;;;;2.96;100.00;101010.44;1769507;80;21054;-71
2022/10/19 01:38:06;;;;;;;36.58;16.77;;;;;;;2.98;100.00;101020.18;1786143;79;21054;-71
2022/10/19 01:40:53;;;;;;;40.08;19.23;;;;;;;2.94;100.00;101017.64;1781782;79;21023;-71
2022/10/19 01:43:35;;;;;;;40.38;20.45;;;;;;;2.90;100.00;101013.02;1782710;80;21050;-71
2022/10/19 01:46:21;;;;;;;40.63;20.65;;;;;;;2.84;100.00;101024.48;1789865;80;21572;-71
2022/10/19 01:48:59;;;;;;;40.40;20.37;;;;;;;2.77;100.00;101023.64;1780934;79;21088;-71
2022/10/19 01:51:32;;;;;;;38.58;18.60;;;;;;;2.76;100.00;101019.85;1785193;80;21003;-71
2022/10/19 01:54:04;;;;;;;42.98;19.95;;;;;;;2.76;100.00;101019.85;1780890;79;21070;-71
2022/10/19 01:56:35;;;;;;;37.78;18.73;;;;;;;2.72;100.00;101023.26;1783883;80;21486;-71
2022/10/19 01:59:05;;;;;;;36.03;18.73;;;;;;;2.68;100.00;101021.14;1751194;80;21038;-71
2022/10/19 02:01:36;;;;;;;36.93;17.40;;;;;;;2.69;100.00;101020.71;1785705;79;21592;-71
2022/10/19 02:04:05;;;;;;;34.15;17.65;;;;;;;2.69;100.00;101020.71;1788099;80;21046;-71
2022/10/19 02:06:32;;;;;;;29.82;16.48;;;;;;;2.52;100.00;101011.88;1784326;80;21073;-71
2022/10/19 02:09:01;;;;;;;32.20;16.60;;;;;;;2.57;100.00;101014.80;1785272;79;21065;-71
2022/10/19 02:11:29;;;;;;;36.58;16.57;;;;;;;2.57;100.00;101014.80;1788625;79;20979;-71
2022/10/19 02:14:00;;;;;;;28.70;16.70;;;;;;;2.57;100.00;101009.72;1782607;80;21101;-71
2022/10/19 02:16:36;;;;;;;30.97;15.25;;;;;;;2.54;100.00;100994.50;1774153;80;22497;-71
2022/10/19 02:19:07;;;;;;;28.38;14.78;;;;;;;2.54;100.00;100994.50;1783753;80;21042;-72
2022/10/19 02:21:36;;;;;;;30.48;14.38;;;;;;;2.59;100.00;101004.20;1760756;80;21025;-71
2022/10/19 02:24:04;;;;;;;31.85;15.18;;;;;;;2.61;100.00;101001.23;1761656;80;21061;-71
2022/10/19 02:26:31;;;;;;;24.12;14.33;;;;;;;2.61;100.00;101008.02;1758758;80;21029;-71
2022/10/19 02:28:59;;;;;;;27.90;14.20;;;;;;;2.63;100.00;100991.50;1764129;80;21080;-71
2022/10/19 02:31:26;;;;;;;28.35;14.93;;;;;;;2.63;100.00;100991.50;1765883;80;21131;-71
2022/10/19 02:33:53;;;;;;;29.37;14.20;;;;;;;2.69;100.00;100986.39;1772377;80;21095;-70
2022/10/19 02:36:21;;;;;;;29.42;15.20;;;;;;;2.69;100.00;100982.58;1761963;80;21552;-71
2022/10/19 02:38:49;;;;;;;26.68;14.47;;;;;;;2.69;100.00;100982.15;1755578;80;21005;-71
2022/10/19 02:41:23;;;;;;;26.48;13.80;;;;;;;2.66;100.00;100972.02;1768134;80;21021;-70
2022/10/19 02:44:00;;;;;;;27.77;13.62;;;;;;;2.66;100.00;100966.09;1720787;81;21084;-72
2022/10/19 02:46:40;;;;;;;27.35;13.50;;;;;;;2.66;100.00;100955.92;1757369;80;21033;-71
2022/10/19 02:49:09;;;;;;;26.12;12.95;;;;;;;2.66;100.00;100955.92;1762518;79;21099;-71
2022/10/19 02:51:41;;;;;;;25.65;13.32;;;;;;;2.74;100.00;100956.73;1762831;80;21060;-71
2022/10/19 02:54:08;;;;;;;29.48;13.38;;;;;;;2.74;100.00;100946.56;1759197;80;21061;-71
2022/10/19 02:56:36;;;;;;;24.77;12.73;;;;;;;2.75;100.00;100945.69;1754908;80;21025;-71
2022/10/19 02:59:03;;;;;;;29.42;13.85;;;;;;;2.77;100.00;100943.98;1752303;80;21041;-71
2022/10/19 03:01:31;;;;;;;23.27;12.15;;;;;;;2.74;100.00;100948.67;1753634;79;21101;-71
2022/10/19 03:03:58;;;;;;;24.95;12.50;;;;;;;2.77;100.00;100941.02;1766373;80;21010;-71
2022/10/19 03:06:25;;;;;;;23.15;12.58;;;;;;;2.78;100.00;100936.80;1748424;80;21084;-71
2022/10/19 03:08:54;;;;;;;25.15;12.28;;;;;;;2.80;100.00;100927.47;1756455;80;21128;-72
2022/10/19 03:11:21;;;;;;;27.05;14.18;;;;;;;2.85;100.00;100927.43;1763311;80;21037;-69
2022/10/19 03:13:50;;;;;;;30.60;14.75;;;;;;;2.86;100.00;100925.29;1757312;80;21061;-72
2022/10/19 03:16:18;;;;;;;27.98;14.63;;;;;;;2.84;100.00;100924.45;1765653;80;21492;-71
2022/10/19 03:18:49;;;;;;;29.87;15.58;;;;;;;2.80;100.00;100910.94;1756285;80;21068;-71
2022/10/19 03:21:17;;;;;;;31.37;14.78;;;;;;;2.80;100.00;100910.94;1763827;80;21077;-71
2022/10/19 03:23:44;;;;;;;32.58;15.65;;;;;;;2.79;100.00;100906.69;1754545;80;21623;-71
2022/10/19 03:26:15;;;;;;;25.27;13.62;;;;;;;2.65;100.00;100905.92;1761416;80;20997;-71
2022/10/19 03:28:42;;;;;;;29.77;14.75;;;;;;;2.61;100.00;100877.13;1758525;80;21029;-71
2022/10/19 03:31:09;;;;;;;22.73;11.45;;;;;;;2.76;100.00;100901.64;1749028;80;21096;-71
2022/10/19 03:33:37;;;;;;;25.23;12.98;;;;;;;2.82;100.00;100896.52;1757602;80;21091;-71
2022/10/19 03:36:24;;;;;;;21.62;11.68;;;;;;;2.83;100.00;100889.30;1744761;80;21536;-71
2022/10/19 03:39:01;;;;;;;19.00;10.98;;;;;;;2.83;100.00;100882.94;1743021;80;21061;-71
2022/10/19 03:41:32;;;;;;;23.52;11.48;;;;;;;3.08;100.00;100870.92;1763497;80;21021;-72
2022/10/19 03:43:59;;;;;;;20.72;11.20;;;;;;;3.23;100.00;100864.86;1753369;80;21072;-72
2022/10/19 03:46:27;;;;;;;20.57;10.93;;;;;;;3.29;100.00;100849.98;1776386;80;21159;-71
2022/10/19 03:48:54;;;;;;;22.67;11.48;;;;;;;3.24;100.00;100856.36;1755235;80;21110;-71
2022/10/19 03:51:27;;;;;;;19.40;11.63;;;;;;;3.06;100.00;100848.44;1751202;80;21552;-71
2022/10/19 03:53:57;;;;;;;18.37;10.70;;;;;;;3.03;100.00;100857.81;1756965;80;21060;-73
2022/10/19 03:56:26;;;;;;;24.77;11.97;;;;;;;2.95;100.00;100845.98;1755560;80;21021;-72
2022/10/19 03:58:55;;;;;;;25.52;12.18;;;;;;;2.93;100.00;100843.05;1756913;80;21037;-72
2022/10/19 04:01:30;;;;;;;25.05;12.43;;;;;;;2.93;100.00;100834.14;1768372;79;21552;-72
2022/10/19 04:04:01;;;;;;;32.45;14.45;;;;;;;2.95;100.00;100833.70;1751408;80;21073;-72
2022/10/19 04:06:32;;;;;;;32.63;15.58;;;;;;;2.85;100.00;100831.65;1752089;80;21033;-71
2022/10/19 04:09:03;;;;;;;41.25;17.02;;;;;;;2.73;100.00;100835.11;1767809;80;21521;-72
2022/10/19 04:11:32;;;;;;;44.18;18.73;;;;;;;2.66;100.00;100832.21;1769211;80;21108;-71
2022/10/19 04:14:00;;;;;;;40.28;16.65;;;;;;;2.63;100.00;100829.67;1750739;80;21084;-71
2022/10/19 04:16:30;;;;;;;40.50;18.25;;;;;;;2.59;100.00;100831.38;1749068;80;21359;-72
2022/10/19 04:18:59;;;;;;;41.68;18.02;;;;;;;2.59;100.00;100831.38;1769516;80;21073;-71
2022/10/19 04:21:33;;;;;;;40.25;18.30;;;;;;;2.61;100.00;100830.95;1744895;80;21557;-72
2022/10/19 04:24:06;;;;;;;38.35;17.10;;;;;;;2.63;100.00;100832.65;1765170;80;21185;-72
2022/10/19 04:26:40;;;;;;;47.05;17.60;;;;;;;2.67;100.00;100812.72;1750237;80;21048;-71
2022/10/19 04:29:09;;;;;;;44.70;17.57;;;;;;;2.67;100.00;100812.72;1759289;80;21037;-72
2022/10/19 04:31:38;;;;;;;40.58;16.85;;;;;;;2.74;100.00;100821.56;1754009;80;21048;-72
2022/10/19 04:34:06;;;;;;;46.35;16.55;;;;;;;2.78;100.00;100821.96;1768593;79;21506;-71
2022/10/19 04:36:35;;;;;;;37.78;15.20;;;;;;;2.89;100.00;100828.66;1752796;80;21025;-72
2022/10/19 04:39:04;;;;;;;32.78;13.08;;;;;;;2.94;100.00;100815.06;1767889;80;21049;-72
2022/10/19 04:41:32;;;;;;;26.57;12.95;;;;;;;2.94;100.00;100815.06;1763258;80;21033;-71
2022/10/19 04:44:01;;;;;;;29.42;13.85;;;;;;;3.04;100.00;100817.09;1764861;80;21057;-71
2022/10/19 04:46:29;;;;;;;30.62;14.03;;;;;;;3.15;100.00;100810.66;1756098;80;21052;-72
2022/10/19 04:48:58;;;;;;;25.68;13.53;;;;;;;3.22;100.00;100808.46;1763536;80;22254;-71
2022/10/19 04:51:25;;;;;;;25.48;12.82;;;;;;;3.33;100.00;100807.95;1748801;80;21002;-72
2022/10/19 04:53:55;;;;;;;25.52;12.30;;;;;;;3.43;100.00;100804.89;1750526;80;21037;-72
2022/10/19 04:56:26;;;;;;;21.82;12.47;;;;;;;3.50;100.00;100809.48;1757852;80;21061;-71
2022/10/19 04:58:56;;;;;;;22.58;11.45;;;;;;;3.63;100.00;100807.64;1748736;80;21049;-71
2022/10/19 05:01:25;;;;;;;19.17;10.95;;;;;;;3.74;100.00;100804.56;1759775;79;21053;-71
2022/10/19 05:03:56;;;;;;;21.97;11.25;;;;;;;3.84;100.00;100801.05;1747629;80;21049;-71
2022/10/19 05:06:24;;;;;;;23.42;12.53;;;;;;;4.00;100.00;100794.91;1749675;80;21045;-71
2022/10/19 05:08:51;;;;;;;22.77;12.07;;;;;;;4.12;100.00;100788.83;1750891;80;21031;-71
2022/10/19 05:11:20;;;;;;;23.67;12.03;;;;;;;4.26;100.00;100784.83;1759937;80;21060;-71
2022/10/19 05:13:48;;;;;;;22.27;11.55;;;;;;;4.41;100.00;100778.22;1758222;80;21147;-71
2022/10/19 05:16:20;;;;;;;19.90;11.33;;;;;;;4.56;100.00;100764.84;1763274;80;21041;-71
2022/10/19 05:18:50;;;;;;;;;;;;;;;4.67;100.00;100756.60;1765589;80;21025;-72
2022/10/19 05:21:19;;;;;;;21.82;11.18;;;;;;;4.80;100.00;100752.14;1766671;80;20103;-71
2022/10/19 05:23:46;;;;;;;24.63;11.12;;;;;;;4.94;100.00;100747.64;1755874;80;21520;-71
2022/10/19 05:26:16;;;;;;;21.52;12.13;;;;;;;5.14;100.00;100739.64;1746766;80;21108;-72
2022/10/19 05:28:55;;;;;;;21.73;11.83;;;;;;;5.28;100.00;100731.74;1745698;80;21008;-71
2022/10/19 05:31:20;;;;;;;22.25;11.73;;;;;;;5.40;100.00;100732.79;1755964;80;21076;-71
2022/10/19 05:33:47;;;;;;;24.63;12.18;;;;;;;5.57;100.00;100723.95;1757769;80;21096;-71
2022/10/19 05:36:25;;;;;;;24.05;11.97;;;;;;;5.65;100.00;100714.87;1753328;80;21692;-71
2022/10/19 05:38:57;;;;;;;22.32;12.20;;;;;;;5.85;100.00;100709.34;1751241;80;21037;-72
2022/10/19 05:41:26;;;;;;;22.98;12.18;;;;;;;6.05;100.00;100705.13;1756391;80;21076;-71
2022/10/19 05:43:57;;;;;;;23.90;12.73;;;;;;;6.16;100.00;100704.42;1750513;80;21109;-71
2022/10/19 05:46:27;;;;;;;24.47;13.50;;;;;;;6.29;100.00;100690.50;1745507;80;21590;-71
2022/10/19 05:48:57;;;;;;;23.18;13.25;;;;;;;6.41;100.00;100682.98;1760122;80;21057;-71
2022/10/19 05:51:25;;;;;;;22.42;13.13;;;;;;;6.54;100.00;100671.56;1757288;80;21029;-72
2022/10/19 05:53:54;;;;;;;26.25;14.20;;;;;;;6.71;100.00;100662.62;1761845;80;21077;-72
2022/10/19 05:56:25;;;;;;;21.70;13.08;;;;;;;6.82;100.00;100647.39;1745879;80;21025;-72
2022/10/19 05:58:54;;;;;;;20.52;12.00;;;;;;;6.99;100.00;100649.95;1763186;80;21544;-72
2022/10/19 06:01:21;;;;;;;21.50;11.48;;;;;;;7.04;100.00;100645.55;1760729;80;21234;-72
2022/10/19 06:03:54;;;;;;;21.55;11.88;;;;;;;7.29;100.00;100632.90;1774950;80;21111;-72
2022/10/19 06:06:22;;;;;;;24.18;12.40;;;;;;;7.43;100.00;100628.66;1770872;80;21029;-72
2022/10/19 06:08:52;;;;;;;22.62;12.68;;;;;;;7.63;100.00;100622.95;1756464;80;21040;-72
2022/10/19 06:11:26;;;;;;;20.30;12.35;;;;;;;7.80;100.00;100615.58;1759105;80;21047;-72
2022/10/19 06:13:56;;;;;;;21.37;12.35;;;;;;;7.90;100.00;100612.29;1749859;80;21082;-71
2022/10/19 06:16:27;;;;;;;21.85;12.10;;;;;;;8.15;100.00;100599.97;1766464;80;21044;-72
2022/10/19 06:18:55;;;;;;;21.52;12.13;;;;;;;8.29;100.00;100603.37;1773709;80;21033;-72
2022/10/19 06:21:25;;;;;;;20.48;12.23;;;;;;;8.46;100.00;100593.88;1759008;80;21033;-72
2022/10/19 06:23:58;;;;;;;15.55;10.32;;;;;;;8.68;100.00;100588.81;1767532;80;21045;-72
2022/10/19 06:26:27;;;;;;;19.77;10.05;;;;;;;8.96;100.00;100581.84;1766796;80;21123;-72
2022/10/19 06:28:58;;;;;;;16.07;9.83;;;;;;;9.46;100.00;100578.27;1758992;80;21041;-72
2022/10/19 06:31:29;;;;;;;19.98;10.20;;;;;;;9.83;100.00;100568.69;1755179;80;21080;-71
2022/10/19 06:33:57;;;;;;;21.50;10.05;;;;;;;10.09;100.00;100580.09;1761367;80;21065;-71
2022/10/19 06:36:29;;;;;;;16.70;9.35;;;;;;;10.40;100.00;100595.97;1758803;80;21109;-72
2022/10/19 06:38:58;;;;;;;16.05;9.53;;;;;;;10.56;100.00;100608.17;1748334;80;21517;-72
2022/10/19 06:41:26;;;;;;;16.80;8.48;;;;;;;10.76;100.00;100615.05;1773137;80;21159;-72
2022/10/19 06:43:55;;;;;;;11.48;7.47;;;;;;;10.98;100.00;100612.38;1752128;80;21072;-72
2022/10/19 06:46:25;;;;;;;12.80;8.23;;;;;;;11.13;100.00;100617.30;1758700;80;21065;-72
2022/10/19 06:48:58;;;;;;;10.28;7.00;;;;;;;11.28;100.00;100620.48;1753059;80;20994;-72
2022/10/19 06:51:29;;;;;;;12.37;7.40;;;;;;;11.53;100.00;100627.09;1754435;80;21052;-72
2022/10/19 06:53:56;;;;;;;12.68;6.97;;;;;;;11.73;100.00;100646.80;1762855;80;21069;-72
2022/10/19 06:56:24;;;;;;;8.95;6.47;;;;;;;11.92;100.00;100651.52;1746643;80;21025;-72
2022/10/19 06:58:53;;;;;;;11.48;6.67;;;;;;;12.07;100.00;100655.11;1756472;80;21044;-72
2022/10/19 07:01:20;;;;;;;13.68;6.08;;;;;;;12.22;100.00;100655.64;1760159;80;21810;-72
2022/10/19 07:03:50;;;;;;;8.90;5.78;;;;;;;12.23;100.00;100667.65;1761116;80;21072;-72
2022/10/19 07:06:17;;;;;;;11.43;5.90;;;;;;;12.30;100.00;100678.97;1767537;80;21069;-71
2022/10/19 07:08:44;;;;;;;8.88;5.85;;;;;;;12.38;100.00;100680.25;1756179;80;21076;-72
2022/10/19 07:11:15;;;;;;;11.20;5.50;;;;;;;12.51;100.00;100679.22;1753792;80;21029;-71
2022/10/19 07:13:42;;;;;;;8.60;5.40;;;;;;;12.61;100.00;100676.98;1766887;80;21073;-72
2022/10/19 07:16:15;;;;;;;9.33;5.92;;;;;;;12.67;100.00;100678.44;1757777;80;21556;-72
2022/10/19 07:18:42;;;;;;;8.55;5.83;;;;;;;12.71;100.00;100683.39;1769662;79;20956;-72
2022/10/19 07:21:14;;;;;;;8.15;5.83;;;;;;;12.87;100.00;100675.67;1781012;80;21047;-71
2022/10/19 07:23:43;;;;;;;8.25;5.60;;;;;;;12.95;100.00;100668.83;1785757;80;21157;-73
2022/10/19 07:26:18;;;;;;;9.28;5.83;;;;;;;12.99;100.00;100663.89;1782986;79;21046;-72
2022/10/19 07:28:47;;;;;;;9.73;6.17;;;;;;;13.12;100.00;100659.77;1784016;79;21043;-72
2022/10/19 07:31:19;;;;;;;12.35;6.12;;;;;;;13.32;100.00;100660.04;1782645;80;21553;-74
2022/10/19 07:33:52;;;;;;;10.08;6.22;;;;;;;13.39;100.00;100663.95;1780762;79;21020;-72
2022/10/19 07:36:22;;;;;;;10.43;6.17;;;;;;;13.46;100.00;100656.69;1782383;79;21007;-72
2022/10/19 07:38:49;;;;;;;10.05;6.28;;;;;;;13.59;100.00;100658.17;1782483;79;21026;-73
2022/10/19 07:41:21;;;;;;;11.25;6.60;;;;;;;13.68;100.00;100658.13;1783237;80;21070;-72
2022/10/19 07:43:49;;;;;;;9.30;6.65;;;;;;;13.85;100.00;100648.13;1785040;79;21011;-72
2022/10/19 07:46:20;;;;;;;10.58;6.50;;;;;;;13.92;100.00;100643.83;1782353;79;21065;-72
2022/10/19 07:48:47;;;;;;;12.15;7.10;;;;;;;13.98;100.00;100650.42;1784926;79;21530;-73
2022/10/19 07:51:16;;;;;;;10.15;5.90;;;;;;;14.08;100.00;100640.39;1782173;79;21050;-72
2022/10/19 07:53:45;;;;;;;10.10;6.20;;;;;;;14.12;100.00;100644.01;1784724;79;21608;-73
2022/10/19 07:56:16;;;;;;;11.53;6.40;;;;;;;14.16;100.00;100643.38;1783121;79;21016;-72
2022/10/19 07:58:43;;;;;;;11.03;7.20;;;;;;;14.24;100.00;100638.59;1781769;79;21490;-72
2022/10/19 08:01:14;;;;;;;9.53;6.33;;;;;;;14.35;100.00;100638.80;1762876;79;21110;-72
2022/10/19 08:03:43;;;;;;;10.60;6.45;;;;;;;14.35;100.00;100639.27;1781142;79;21054;-73
2022/10/19 08:06:15;;;;;;;8.20;6.58;;;;;;;14.38;100.00;100634.75;1784318;79;21023;-72
2022/10/19 08:08:45;;;;;;;9.70;6.70;;;;;;;14.37;100.00;100630.48;1777933;79;21090;-72
2022/10/19 08:11:19;;;;;;;10.68;6.67;;;;;;;14.54;100.00;100640.34;1776805;80;21007;-73
2022/10/19 08:13:47;;;;;;;9.83;6.50;;;;;;;14.56;100.00;100641.95;1782716;79;21079;-73
2022/10/19 08:16:28;;;;;;;8.60;6.25;;;;;;;14.60;100.00;100633.06;1782049;79;21065;-72
2022/10/19 08:19:00;;;;;;;8.18;5.47;;;;;;;14.46;100.00;100636.90;1784853;79;21002;-73
2022/10/19 08:21:28;;;;;;;8.70;5.72;;;;;;;14.52;100.00;100626.65;1779990;79;21038;-72
2022/10/19 08:23:57;;;;;;;7.17;5.17;;;;;;;14.66;100.00;100620.22;1781756;79;20987;-73
2022/10/19 08:26:30;;;;;;;8.48;4.92;;;;;;;14.79;100.00;100623.73;1783174;79;21549;-72
2022/10/19 08:29:05;;;;;;;12.60;4.40;;;;;;;15.02;100.00;100618.47;1782403;79;21048;-73
2022/10/19 08:31:32;;;;;;;6.37;3.98;;;;;;;15.28;100.00;100622.97;1784115;79;20992;-72
2022/10/19 08:33:59;;;;;;;7.35;3.77;;;;;;;15.43;100.00;100618.14;1784041;79;21015;-73
2022/10/19 08:36:29;;;;;;;8.30;3.95;;;;;;;15.59;100.00;100622.73;1780741;80;21085;-72
2022/10/19 08:38:55;;;;;;;9.73;3.90;;;;;;;15.66;100.00;100619.27;1781812;80;21026;-72
2022/10/19 08:41:33;;;;;;;6.83;3.45;;;;;;;15.67;100.00;100611.84;1783494;79;20972;-72
2022/10/19 08:44:35;;;;;;;7.03;2.90;;;;;;;15.75;100.00;100603.59;1782250;79;21502;-70
2022/10/19 08:47:49;;;;;;;4.58;2.87;;;;;;;15.84;100.00;100599.13;1777315;79;21067;-72
2022/10/19 08:50:24;;;;;;;5.60;2.70;;;;;;;15.97;100.00;100583.58;1784122;79;21150;-72
2022/10/19 08:53:05;;;;;;;5.30;2.40;;;;;;;16.11;100.00;100577.00;1783618;79;21020;-72
2022/10/19 08:55:59;;;;;;;7.05;2.52;;;;;;;16.11;100.00;100573.11;1785387;79;21041;-72
2022/10/19 08:58:56;;;;;;;5.90;2.47;;;;;;;16.21;100.00;100570.73;1782751;79;21011;-72
2022/10/19 09:01:45;;;;;;;3.40;2.40;;;;;;;16.23;100.00;100567.57;1778915;79;21121;-72
2022/10/19 09:04:29;;;;;;;4.28;2.62;;;;;;;16.29;100.00;100562.44;1781632;79;21087;-72
2022/10/19 09:07:07;;;;;;;2.25;2.05;;;;;;;16.38;100.00;100565.70;1780247;79;21495;-72
2022/10/19 09:09:40;;;;;;;4.20;2.35;;;;;;;16.44;100.00;100566.59;1779229;79;21530;-73
2022/10/19 09:12:17;;;;;;;4.05;1.90;;;;;;;16.52;100.00;100574.69;1785991;79;21535;-72
2022/10/19 09:15:02;;;;;;;3.62;2.10;;;;;;;16.48;100.00;100561.54;1761565;79;21586;-72
2022/10/19 09:17:31;;;;;;;6.17;2.17;;;;;;;16.60;100.00;100567.20;1782857;79;21566;-72
2022/10/19 09:20:22;;;;;;;3.70;2.20;;;;;;;16.86;100.00;100567.69;1766974;80;21086;-72
2022/10/19 09:23:03;;;;;;;5.15;1.90;;;;;;;16.89;100.00;100564.41;1762688;80;21193;-73
2022/10/19 09:25:34;;;;;;;2.42;1.95;;;;;;;16.96;100.00;100565.63;1719918;80;21084;-72
2022/10/19 09:28:32;;;;;;;2.47;2.10;;;;;;;17.05;100.00;100570.65;1766548;80;21061;-72
2022/10/19 09:30:59;;;;;;;2.58;1.80;;;;;;;17.13;100.00;100572.27;1760096;80;21124;-72
2022/10/19 09:33:31;;;;;;;3.87;2.10;;;;;;;17.21;100.00;100565.20;1767748;80;21022;-72
2022/10/19 09:36:01;;;;;;;3.92;2.20;;;;;;;17.25;98.21;100573.15;1764438;80;21041;-72
2022/10/19 09:38:30;;;;;;;4.72;2.17;;;;;;;17.19;98.76;100564.03;1776876;79;21057;-72
2022/10/19 09:41:13;;;;;;;6.17;2.42;;;;;;;17.25;98.07;100554.11;1782916;80;21533;-72
2022/10/19 09:43:55;;;;;;;5.72;2.27;;;;;;;17.27;96.98;100555.66;1777250;80;21081;-72
2022/10/19 09:46:53;;;;;;;2.47;2.10;;;;;;;17.32;93.15;100553.57;1774943;79;21509;-71
2022/10/19 09:49:43;;;;;;;3.12;2.22;;;;;;;17.34;93.72;100552.17;1783541;79;21046;-70
2022/10/19 09:52:32;;;;;;;3.83;2.15;;;;;;;17.20;96.43;100538.36;1765754;79;21580;-71
2022/10/19 09:55:27;;;;;;;3.05;2.20;;;;;;;17.27;96.48;100543.13;1769813;80;21027;-72
2022/10/19 09:58:14;;;;;;;4.05;2.20;;;;;;;17.19;95.44;100543.22;1756753;80;20983;-71
2022/10/19 10:00:55;;;;;;;3.90;2.35;;;;;;;17.24;95.17;100535.08;1780837;80;21039;-72
2022/10/19 10:03:27;;;;;;;3.37;2.27;;;;;;;17.19;95.60;100538.02;1779974;80;21044;-72
2022/10/19 10:05:58;;;;;;;4.65;2.60;;;;;;;17.21;97.67;100532.23;1779301;80;21610;-72
2022/10/19 10:08:34;;;;;;;6.22;2.65;;;;;;;17.08;100.00;100524.94;1781085;80;21023;-72
2022/10/19 10:11:27;;;;;;;4.08;2.62;;;;;;;17.09;100.00;100521.41;1779705;80;21038;-72
2022/10/19 10:13:57;;;;;;;8.35;2.90;;;;;;;17.09;100.00;100516.66;1755927;80;21172;-71
2022/10/19 10:16:29;;;;;;;4.85;2.80;;;;;;;17.26;100.00;100520.67;1780533;80;21074;-71
2022/10/19 10:19:03;;;;;;;4.40;2.70;;;;;;;17.32;100.00;100510.64;1782985;80;21003;-71
2022/10/19 10:21:54;;;;;;;6.47;2.90;;;;;;;17.32;100.00;100510.64;1754085;80;21011;-71
2022/10/19 10:24:26;;;;;;;5.85;3.10;;;;;;;17.34;100.00;100511.84;1769670;80;21081;-72
2022/10/19 10:27:00;;;;;;;6.03;3.33;;;;;;;17.47;100.00;100508.69;1754878;79;21077;-71
2022/10/19 10:29:32;;;;;;;;;;;;;;;17.56;100.00;100498.09;1777421;80;21060;-72
2022/10/19 10:32:18;;;;;;;6.30;4.05;;;;;;;17.50;100.00;100493.31;1733111;81;20149;-72
2022/10/19 10:35:02;;;;;;;4.47;3.30;;;;;;;17.52;100.00;100491.45;1711953;81;21027;-72
2022/10/19 10:37:45;;;;;;;8.85;3.70;;;;;;;17.57;100.00;100480.22;1726890;82;21622;-72
2022/10/19 10:40:28;;;;;;;5.87;3.80;;;;;;;17.67;100.00;100477.28;1736795;80;21568;-72
2022/10/19 10:43:10;;;;;;;5.62;3.83;;;;;;;17.84;100.00;100476.05;1764222;80;21029;-72
2022/10/19 10:45:45;;;;;;;7.05;3.70;;;;;;;17.79;100.00;100469.04;1760983;79;21010;-71
2022/10/19 10:48:39;;;;;;;5.75;3.30;;;;;;;17.89;100.00;100463.53;1751492;80;21031;-72
2022/10/19 10:51:29;;;;;;;5.00;3.47;;;;;;;17.95;100.00;100449.22;1769724;80;21050;-72
2022/10/19 10:54:23;;;;;;;6.00;3.75;;;;;;;17.91;100.00;100446.01;1762907;79;21030;-72
2022/10/19 10:57:18;;;;;;;7.55;3.60;;;;;;;18.00;100.00;100431.00;1735462;79;21512;-72
2022/10/19 10:59:53;;;;;;;6.97;4.17;;;;;;;18.10;100.00;100435.00;1774954;80;21001;-71
2022/10/19 11:02:51;;;;;;;5.72;3.60;;;;;;;18.30;100.00;100437.37;1773010;80;21070;-72
2022/10/19 11:05:31;;;;;;;6.35;3.85;;;;;;;18.48;100.00;100427.30;1715396;80;21028;-72
2022/10/19 11:08:18;;;;;;;5.58;3.70;;;;;;;18.53;100.00;100422.56;1774015;80;21097;-72
2022/10/19 11:10:54;;;;;;;6.30;4.20;;;;;;;18.56;100.00;100431.42;1763944;80;21524;-72
2022/10/19 11:13:45;;;;;;;7.83;3.80;;;;;;;18.65;100.00;100425.12;1765641;80;21057;-72
2022/10/19 11:16:15;;;;;;;7.72;4.30;;;;;;;18.65;100.00;100416.83;1766701;80;21004;-72
2022/10/19 11:18:57;;;;;;;6.05;4.10;;;;;;;18.76;99.58;100410.78;1773462;80;21012;-72
2022/10/19 11:21:32;;;;;;;5.90;4.62;;;;;;;18.86;99.33;100421.34;1762945;80;21040;-72
2022/10/19 11:24:19;;;;;;;10.48;5.00;;;;;;;18.81;97.68;100420.37;1762226;80;21024;-72
2022/10/19 11:27:09;;;;;;;8.28;4.45;;;;;;;18.76;96.79;100416.81;1749702;80;21064;-72
2022/10/19 11:29:55;;;;;;;7.08;4.20;;;;;;;18.64;98.94;100417.80;1726541;81;22062;-73
2022/10/19 11:32:48;;;;;;;12.05;4.33;;;;;;;18.57;100.00;100409.64;1731632;81;21069;-73
2022/10/19 11:35:53;;;;;;;6.37;4.10;;;;;;;18.52;100.00;100410.47;1771745;80;21029;-73
2022/10/19 11:38:45;;;;;;;10.03;4.30;;;;;;;18.52;100.00;100403.95;1772258;79;21011;-73
2022/10/19 11:41:53;;;;;;;8.03;4.58;;;;;;;18.47;100.00;100403.95;1776351;80;21063;-72
2022/10/19 11:44:32;;;;;;;10.63;4.75;;;;;;;18.50;100.00;100399.33;1789094;79;21033;-72